createdAt,value
2023-01-13T00:00:56.707Z,79.81
2023-01-13T00:03:23.543Z,80.34
2023-01-13T00:05:50.273Z,79.57
2023-01-13T00:08:18.530Z,80.11
2023-01-13T00:10:47.016Z,79.85
2023-01-13T00:13:15.172Z,79.94
2023-01-13T00:15:41.978Z,80.32
2023-01-13T00:18:09.280Z,81.14
2023-01-13T00:20:36.456Z,80.82
2023-01-13T00:23:03.266Z,80.54
2023-01-13T00:25:31.354Z,81.45
2023-01-13T00:27:58.169Z,81.40
2023-01-13T00:30:24.974Z,81.42
2023-01-13T00:32:51.788Z,81.52
2023-01-13T00:35:18.538Z,81.36
2023-01-13T00:37:45.475Z,81.50
2023-01-13T00:40:12.739Z,81.60
2023-01-13T00:42:41.123Z,81.78
2023-01-13T00:45:08.360Z,81.40
2023-01-13T00:47:35.212Z,81.44
2023-01-13T00:50:02.010Z,81.50
2023-01-13T00:52:29.183Z,81.42
2023-01-13T00:54:55.906Z,82.09
2023-01-13T00:57:22.731Z,81.91
2023-01-13T00:59:51.109Z,81.66
2023-01-13T01:02:18.072Z,81.10
2023-01-13T01:04:44.823Z,82.05
2023-01-13T01:07:11.644Z,81.42
2023-01-13T01:09:38.413Z,80.78
2023-01-13T01:12:05.549Z,80.88
2023-01-13T01:14:33.830Z,81.04
2023-01-13T01:17:02.529Z,81.78
2023-01-13T01:19:29.288Z,82.49
2023-01-13T01:21:56.112Z,82.67
2023-01-13T01:24:22.854Z,81.81
2023-01-13T01:26:49.931Z,83.23
2023-01-13T01:29:16.766Z,84.62
2023-01-13T01:31:44.091Z,86.26
2023-01-13T01:34:12.302Z,88.05
2023-01-13T01:36:39.587Z,90.61
2023-01-13T01:39:06.708Z,90.33
2023-01-13T01:41:35.702Z,91.68
2023-01-13T01:44:08.258Z,86.51
2023-01-13T01:46:37.413Z,86.99
2023-01-13T01:49:14.879Z,87.42
2023-01-13T01:51:45.243Z,88.82
2023-01-13T01:54:18.029Z,85.85
2023-01-13T01:56:46.146Z,84.84
2023-01-13T01:59:14.118Z,83.48
2023-01-13T02:01:42.299Z,83.68
2023-01-13T02:04:14.594Z,83.64
2023-01-13T02:06:42.563Z,83.50
2023-01-13T02:09:10.678Z,83.33
2023-01-13T02:11:44.976Z,84.47
2023-01-13T02:14:12.600Z,84.44
2023-01-13T02:16:48.418Z,84.86
2023-01-13T02:19:36.140Z,84.95
2023-01-13T02:22:26.149Z,85.33
2023-01-13T02:25:39.525Z,85.26
2023-01-13T02:28:24.666Z,87.01
2023-01-13T02:30:59.148Z,87.35
2023-01-13T02:33:45.586Z,87.15
2023-01-13T02:36:23.697Z,87.44
2023-01-13T02:38:54.433Z,87.49
2023-01-13T02:41:27.426Z,87.89
2023-01-13T02:43:58.582Z,89.04
2023-01-13T02:46:30.209Z,89.75
2023-01-13T02:49:00.049Z,90.09
2023-01-13T02:51:29.622Z,90.54
2023-01-13T02:54:01.213Z,90.98
2023-01-13T02:56:29.411Z,91.51
2023-01-13T02:58:57.977Z,91.90
2023-01-13T03:01:26.328Z,92.27
2023-01-13T03:03:53.086Z,92.70
2023-01-13T03:06:35.629Z,92.95
2023-01-13T03:09:10.608Z,93.25
2023-01-13T03:11:50.708Z,93.36
2023-01-13T03:14:30.137Z,93.68
2023-01-13T03:17:14.250Z,93.63
2023-01-13T03:19:46.516Z,93.81
2023-01-13T03:22:21.862Z,93.61
2023-01-13T03:24:53.165Z,94.00
2023-01-13T03:27:25.471Z,94.15
2023-01-13T03:29:59.099Z,94.63
2023-01-13T03:32:32.349Z,95.10
2023-01-13T03:35:03.795Z,95.28
2023-01-13T03:37:34.836Z,95.59
2023-01-13T03:40:07.712Z,96.03
2023-01-13T03:42:36.695Z,95.71
2023-01-13T03:45:09.907Z,96.23
2023-01-13T03:47:42.139Z,95.84
2023-01-13T03:50:15.175Z,96.13
2023-01-13T03:52:44.545Z,96.56
2023-01-13T03:55:14.204Z,96.62
2023-01-13T03:57:46.806Z,97.17
2023-01-13T04:00:15.498Z,96.94
2023-01-13T04:02:51.506Z,96.58
2023-01-13T04:05:18.778Z,96.05
2023-01-13T04:07:55.006Z,94.83
2023-01-13T04:10:27.914Z,94.55
2023-01-13T04:12:59.669Z,94.71
2023-01-13T04:15:29.226Z,94.56
2023-01-13T04:18:32.270Z,94.38
2023-01-13T04:21:00.858Z,94.03
2023-01-13T04:23:28.394Z,93.15
2023-01-13T04:25:55.596Z,93.44
2023-01-13T04:28:22.974Z,93.08
2023-01-13T04:30:50.005Z,93.06
2023-01-13T04:33:19.398Z,92.77
2023-01-13T04:35:47.033Z,92.37
2023-01-13T04:38:15.112Z,92.12
2023-01-13T04:40:42.280Z,92.26
2023-01-13T04:43:08.834Z,92.73
2023-01-13T04:45:35.596Z,92.75
2023-01-13T04:48:02.572Z,92.83
2023-01-13T04:50:30.657Z,92.46
2023-01-13T04:52:57.290Z,91.86
2023-01-13T04:55:24.853Z,91.80
2023-01-13T04:57:51.670Z,91.60
2023-01-13T05:00:20.689Z,92.05
2023-01-13T05:02:49.217Z,91.52
2023-01-13T05:05:15.816Z,92.01
2023-01-13T05:07:44.010Z,92.23
2023-01-13T05:10:11.677Z,92.33
2023-01-13T05:12:38.350Z,92.52
2023-01-13T05:15:05.959Z,92.83
2023-01-13T05:17:32.906Z,92.85
2023-01-13T05:19:59.738Z,93.18
2023-01-13T05:22:26.306Z,93.54
2023-01-13T05:24:54.403Z,92.96
2023-01-13T05:27:20.974Z,93.53
2023-01-13T05:29:47.539Z,93.59
2023-01-13T05:32:14.224Z,93.81
2023-01-13T05:34:40.910Z,94.07
2023-01-13T05:37:07.422Z,93.50
2023-01-13T05:39:34.275Z,93.49
2023-01-13T05:42:02.131Z,93.66
2023-01-13T05:44:28.723Z,93.87
2023-01-13T05:46:55.434Z,93.67
2023-01-13T05:49:22.041Z,93.90
2023-01-13T05:51:48.612Z,94.26
2023-01-13T05:54:15.233Z,94.74
2023-01-13T05:56:41.736Z,94.34
2023-01-13T05:59:09.775Z,95.05
2023-01-13T06:01:36.366Z,94.59
2023-01-13T06:04:02.975Z,94.66
2023-01-13T06:06:29.533Z,94.82
2023-01-13T06:08:56.179Z,95.45
2023-01-13T06:11:22.686Z,94.51
2023-01-13T06:13:49.445Z,95.02
2023-01-13T06:16:17.719Z,94.89
2023-01-13T06:18:44.353Z,95.23
2023-01-13T06:21:10.893Z,93.76
2023-01-13T06:23:37.471Z,92.00
2023-01-13T06:26:08.425Z,92.62
2023-01-13T06:28:35.425Z,90.68
2023-01-13T06:31:04.681Z,88.96
2023-01-13T06:33:36.957Z,89.06
2023-01-13T06:36:10.073Z,88.83
2023-01-13T06:38:41.392Z,88.95
2023-01-13T06:41:08.448Z,87.42
2023-01-13T06:43:35.117Z,88.16
2023-01-13T06:46:01.980Z,86.91
2023-01-13T06:48:31.274Z,85.32
2023-01-13T06:50:59.302Z,85.00
2023-01-13T06:53:25.831Z,83.79
2023-01-13T06:55:52.400Z,84.59
2023-01-13T06:58:18.935Z,83.85
2023-01-13T07:00:45.756Z,83.71
2023-01-13T07:03:13.764Z,83.40
2023-01-13T07:05:42.418Z,81.68
2023-01-13T07:08:11.140Z,82.04
2023-01-13T07:10:38.722Z,81.77
2023-01-13T07:13:05.952Z,81.74
2023-01-13T07:15:32.632Z,81.56
2023-01-13T07:17:59.909Z,81.42
2023-01-13T07:20:26.805Z,80.81
2023-01-13T07:22:54.227Z,81.37
2023-01-13T07:25:22.608Z,81.44
2023-01-13T07:27:49.332Z,81.79
2023-01-13T07:30:16.279Z,81.63
2023-01-13T07:32:42.789Z,81.07
2023-01-13T07:35:09.766Z,80.15
2023-01-13T07:37:37.836Z,79.73
2023-01-13T07:40:05.928Z,79.99
2023-01-13T07:42:33.807Z,80.12
2023-01-13T07:45:00.568Z,80.25
2023-01-13T07:47:27.080Z,78.86
2023-01-13T07:49:53.700Z,78.35
2023-01-13T07:52:20.223Z,77.95
2023-01-13T07:54:46.773Z,77.85
2023-01-13T07:57:13.313Z,78.08
2023-01-13T07:59:41.284Z,77.09
2023-01-13T08:02:11.651Z,77.49
2023-01-13T08:04:38.715Z,77.51
2023-01-13T08:07:05.578Z,78.02
2023-01-13T08:09:32.541Z,77.94
2023-01-13T08:11:59.219Z,79.61
2023-01-13T08:14:25.865Z,80.26
2023-01-13T08:16:53.792Z,80.07
2023-01-13T08:19:20.437Z,79.70
2023-01-13T08:21:46.978Z,78.98
2023-01-13T08:24:13.711Z,79.42
2023-01-13T08:26:40.288Z,79.24
2023-01-13T08:29:06.902Z,78.79
2023-01-13T08:31:33.532Z,79.03
2023-01-13T08:34:01.495Z,79.76
2023-01-13T08:36:28.062Z,80.40
2023-01-13T08:38:54.654Z,79.98
2023-01-13T08:41:21.419Z,80.93
2023-01-13T08:43:47.991Z,81.18
2023-01-13T08:46:14.525Z,81.18
2023-01-13T08:48:41.163Z,81.84
2023-01-13T08:51:09.241Z,82.29
2023-01-13T08:53:36.031Z,82.19
2023-01-13T08:56:07.315Z,82.40
2023-01-13T08:58:33.938Z,82.67
2023-01-13T09:01:04.909Z,82.15
2023-01-13T09:03:31.742Z,81.92
2023-01-13T09:05:58.224Z,82.05
2023-01-13T09:08:26.168Z,80.67
2023-01-13T09:10:52.726Z,79.94
2023-01-13T09:13:19.302Z,78.97
2023-01-13T09:15:46.214Z,79.03
2023-01-13T09:18:13.208Z,78.54
2023-01-13T09:20:40.315Z,77.07
2023-01-13T09:23:10.066Z,75.33
2023-01-13T09:25:38.907Z,73.00
2023-01-13T09:28:05.736Z,74.39
2023-01-13T09:30:32.450Z,72.49
2023-01-13T09:32:59.487Z,72.95
2023-01-13T09:35:26.016Z,72.11
2023-01-13T09:37:52.686Z,71.77
2023-01-13T09:40:20.564Z,71.77
2023-01-13T09:42:54.607Z,72.00
2023-01-13T09:45:24.879Z,69.62
2023-01-13T09:47:56.696Z,68.81
2023-01-13T09:50:28.591Z,69.32
2023-01-13T09:52:55.597Z,66.30
2023-01-13T09:55:27.373Z,66.89
2023-01-13T09:57:55.251Z,67.27
2023-01-13T10:00:23.599Z,66.03
2023-01-13T10:03:14.085Z,67.05
2023-01-13T10:05:44.763Z,64.30
2023-01-13T10:08:13.234Z,64.37
2023-01-13T10:10:45.167Z,62.79
2023-01-13T10:13:19.229Z,62.16
2023-01-13T10:15:55.392Z,61.86
2023-01-13T10:18:28.031Z,62.10
2023-01-13T10:21:03.527Z,61.30
2023-01-13T10:23:52.864Z,61.55
2023-01-13T10:26:33.424Z,61.19
2023-01-13T10:29:01.507Z,60.90
2023-01-13T10:31:28.146Z,61.37
2023-01-13T10:33:59.536Z,58.69
2023-01-13T10:36:26.552Z,60.34
2023-01-13T10:38:53.197Z,61.18
2023-01-13T10:41:25.277Z,60.70
2023-01-13T10:44:02.620Z,59.87
2023-01-13T10:46:30.862Z,60.73
2023-01-13T10:48:59.316Z,59.97
2023-01-13T10:51:27.648Z,60.34
2023-01-13T10:53:57.636Z,59.69
2023-01-13T10:56:25.760Z,59.77
2023-01-13T10:58:52.795Z,59.23
2023-01-13T11:01:24.131Z,59.33
2023-01-13T11:03:51.513Z,59.56
2023-01-13T11:06:24.548Z,58.48
2023-01-13T11:08:53.882Z,58.79
2023-01-13T11:11:41.888Z,58.66
2023-01-13T11:14:19.248Z,59.00
2023-01-13T11:16:53.936Z,58.19
2023-01-13T11:19:24.410Z,58.89
2023-01-13T11:21:56.243Z,58.22
2023-01-13T11:24:26.984Z,59.94
2023-01-13T11:26:59.128Z,59.19
2023-01-13T11:29:31.769Z,58.82
2023-01-13T11:32:10.404Z,57.99
2023-01-13T11:34:40.196Z,58.51
2023-01-13T11:37:14.893Z,58.36
2023-01-13T11:39:49.458Z,58.00
2023-01-13T11:42:23.633Z,57.96
2023-01-13T11:44:59.896Z,58.83
2023-01-13T11:47:28.042Z,58.86
2023-01-13T11:49:54.863Z,58.68
2023-01-13T11:52:27.835Z,58.30
2023-01-13T11:55:09.935Z,58.24
2023-01-13T11:57:52.601Z,58.77
2023-01-13T12:00:32.509Z,59.06
2023-01-13T12:03:24.323Z,58.08
2023-01-13T12:06:02.850Z,58.03
2023-01-13T12:08:45.564Z,57.02
2023-01-13T12:11:19.481Z,56.37
2023-01-13T12:14:06.169Z,57.31
2023-01-13T12:16:32.886Z,57.26
2023-01-13T12:19:24.531Z,55.59
2023-01-13T12:22:03.208Z,58.37
2023-01-13T12:24:37.661Z,63.91
2023-01-13T12:27:13.305Z,69.95
2023-01-13T12:29:40.298Z,71.60
2023-01-13T12:32:11.528Z,71.34
2023-01-13T12:34:53.400Z,72.00
2023-01-13T12:37:29.057Z,73.02
2023-01-13T12:40:15.034Z,71.85
2023-01-13T12:42:50.599Z,72.58
2023-01-13T12:45:28.040Z,71.95
2023-01-13T12:47:55.924Z,72.44
2023-01-13T12:50:41.333Z,69.87
2023-01-13T12:53:31.103Z,71.43
2023-01-13T12:56:36.637Z,69.58
2023-01-13T12:59:42.664Z,69.89
2023-01-13T13:02:43.179Z,68.14
2023-01-13T13:05:38.268Z,68.10
2023-01-13T13:08:15.627Z,68.42
2023-01-13T13:10:54.935Z,66.99
2023-01-13T13:13:41.151Z,66.43
2023-01-13T13:16:55.405Z,66.39
2023-01-13T13:19:41.052Z,64.44
2023-01-13T13:22:43.339Z,64.91
2023-01-13T13:25:25.811Z,64.39
2023-01-13T13:28:07.653Z,64.62
2023-01-13T13:30:36.628Z,63.88
2023-01-13T13:33:20.771Z,65.22
2023-01-13T13:36:02.313Z,64.87
2023-01-13T13:38:49.937Z,66.73
2023-01-13T13:41:21.259Z,68.46
2023-01-13T13:43:48.032Z,69.88
2023-01-13T13:46:26.543Z,70.82
2023-01-13T13:48:54.672Z,70.62
2023-01-13T13:51:27.731Z,70.15
2023-01-13T13:53:55.884Z,69.05
2023-01-13T13:56:27.431Z,73.14
2023-01-13T13:58:54.999Z,73.67
2023-01-13T14:01:24.627Z,73.10
2023-01-13T14:04:05.973Z,73.33
2023-01-13T14:06:32.989Z,74.37
2023-01-13T14:08:59.595Z,72.22
2023-01-13T14:11:29.542Z,73.52
2023-01-13T14:14:06.600Z,73.02
2023-01-13T14:16:36.229Z,72.68
2023-01-13T14:19:03.054Z,74.30
2023-01-13T14:21:30.691Z,76.86
2023-01-13T14:24:00.483Z,79.86
2023-01-13T14:26:32.190Z,82.37
2023-01-13T14:29:01.880Z,83.95
2023-01-13T14:31:29.605Z,84.13
2023-01-13T14:33:58.159Z,84.47
2023-01-13T14:36:34.788Z,84.12
2023-01-13T14:39:23.780Z,85.04
2023-01-13T14:41:52.565Z,85.06
2023-01-13T14:44:24.698Z,85.03
2023-01-13T14:46:52.100Z,84.80
2023-01-13T14:49:24.728Z,85.16
2023-01-13T14:51:52.276Z,85.74
2023-01-13T14:54:47.550Z,85.15
2023-01-13T14:57:23.631Z,85.74
2023-01-13T14:59:56.504Z,86.50
2023-01-13T15:03:00.913Z,86.81
2023-01-13T15:05:39.593Z,87.28
2023-01-13T15:08:25.751Z,87.46
2023-01-13T15:10:55.279Z,88.54
2023-01-13T15:13:27.291Z,87.88
2023-01-13T15:15:56.598Z,88.11
2023-01-13T15:18:23.691Z,88.49
2023-01-13T15:20:50.331Z,88.56
2023-01-13T15:23:17.286Z,88.70
2023-01-13T15:25:45.239Z,88.84
2023-01-13T15:28:17.275Z,88.98
2023-01-13T15:30:45.825Z,88.07
2023-01-13T15:33:13.890Z,88.04
2023-01-13T15:35:43.541Z,87.41
2023-01-13T15:38:12.046Z,87.43
2023-01-13T15:40:38.589Z,88.00
2023-01-13T15:43:05.173Z,87.20
2023-01-13T15:45:33.595Z,84.72
2023-01-13T15:48:02.420Z,85.53
2023-01-13T15:50:28.912Z,85.58
2023-01-13T15:52:55.382Z,85.09
2023-01-13T15:55:21.907Z,85.21
2023-01-13T15:57:49.987Z,86.34
2023-01-13T16:00:19.128Z,86.43
2023-01-13T16:02:45.793Z,87.13
2023-01-13T16:05:13.701Z,86.47
2023-01-13T16:07:40.870Z,86.76
2023-01-13T16:10:16.191Z,85.85
2023-01-13T16:12:42.782Z,85.73
2023-01-13T16:15:10.914Z,85.78
2023-01-13T16:17:37.504Z,87.49
2023-01-13T16:20:05.164Z,87.50
2023-01-13T16:22:33.370Z,87.92
2023-01-13T16:24:59.887Z,86.70
2023-01-13T16:27:26.422Z,87.35
2023-01-13T16:29:53.005Z,86.98
2023-01-13T16:32:19.801Z,86.56
2023-01-13T16:34:46.661Z,84.57
2023-01-13T16:37:18.904Z,84.24
2023-01-13T16:39:46.870Z,83.35
2023-01-13T16:42:13.407Z,82.35
2023-01-13T16:44:40.111Z,80.85
2023-01-13T16:47:06.868Z,80.89
2023-01-13T16:49:33.466Z,80.49
2023-01-13T16:51:59.957Z,80.79
2023-01-13T16:54:26.566Z,79.81
2023-01-13T16:56:54.415Z,79.70
2023-01-13T16:59:21.016Z,80.16
2023-01-13T17:01:47.679Z,79.57
2023-01-13T17:04:16.663Z,79.83
2023-01-13T17:06:57.052Z,79.51
2023-01-13T17:09:26.963Z,79.31
2023-01-13T17:11:55.433Z,79.30
2023-01-13T17:14:22.859Z,80.27
2023-01-13T17:16:50.449Z,80.23
2023-01-13T17:19:17.369Z,81.63
2023-01-13T17:21:43.885Z,81.08
2023-01-13T17:24:10.564Z,81.48
2023-01-13T17:26:39.021Z,82.09
2023-01-13T17:29:11.584Z,81.73
2023-01-13T17:31:38.320Z,81.86
2023-01-13T17:34:05.109Z,81.23
2023-01-13T17:36:32.262Z,81.43
2023-01-13T17:38:58.950Z,81.12
2023-01-13T17:41:26.069Z,81.93
2023-01-13T17:43:53.181Z,81.83
2023-01-13T17:46:22.069Z,82.16
2023-01-13T17:48:49.736Z,81.90
2023-01-13T17:51:17.712Z,81.79
2023-01-13T17:53:44.998Z,82.05
2023-01-13T17:56:13.959Z,83.07
2023-01-13T17:58:41.432Z,82.68
2023-01-13T18:01:09.652Z,82.90
2023-01-13T18:03:38.393Z,82.74
2023-01-13T18:06:07.104Z,83.24
2023-01-13T18:08:33.700Z,83.23
2023-01-13T18:11:00.474Z,83.87
2023-01-13T18:13:27.041Z,83.96
2023-01-13T18:15:59.762Z,83.12
2023-01-13T18:18:26.536Z,82.40
2023-01-13T18:20:54.772Z,82.78
2023-01-13T18:23:21.722Z,81.29
2023-01-13T18:25:48.214Z,81.24
2023-01-13T18:28:14.841Z,80.44
2023-01-13T18:30:41.359Z,79.82
2023-01-13T18:33:07.935Z,79.73
2023-01-13T18:35:34.630Z,79.06
2023-01-13T18:38:02.549Z,78.77
2023-01-13T18:40:29.040Z,78.84
2023-01-13T18:42:55.658Z,79.08
2023-01-13T18:45:24.243Z,78.97
2023-01-13T18:47:51.655Z,78.32
2023-01-13T18:50:18.384Z,78.65
2023-01-13T18:52:45.059Z,78.57
2023-01-13T18:55:12.995Z,77.37
2023-01-13T18:57:39.827Z,77.59
2023-01-13T19:00:08.384Z,77.82
2023-01-13T19:02:35.089Z,76.53
2023-01-13T19:05:01.761Z,77.20
2023-01-13T19:07:28.447Z,76.70
2023-01-13T19:09:55.662Z,76.78
2023-01-13T19:12:23.681Z,76.09
2023-01-13T19:14:50.374Z,76.64
2023-01-13T19:17:16.964Z,75.88
2023-01-13T19:19:45.372Z,75.74
2023-01-13T19:22:13.117Z,75.50
2023-01-13T19:24:39.959Z,74.59
2023-01-13T19:27:06.608Z,74.22
2023-01-13T19:29:34.709Z,73.81
2023-01-13T19:32:01.307Z,73.25
2023-01-13T19:34:28.133Z,74.00
2023-01-13T19:36:55.137Z,72.26
2023-01-13T19:39:21.969Z,73.44
2023-01-13T19:41:48.787Z,73.76
2023-01-13T19:44:15.459Z,74.09
2023-01-13T19:46:43.465Z,74.02
2023-01-13T19:49:10.051Z,72.90
2023-01-13T19:51:36.685Z,73.44
2023-01-13T19:54:03.425Z,73.57
2023-01-13T19:56:30.058Z,72.82
2023-01-13T19:58:56.602Z,72.90
2023-01-13T20:01:23.271Z,72.67
2023-01-13T20:03:51.203Z,73.63
2023-01-13T20:06:17.756Z,72.77
2023-01-13T20:08:44.238Z,73.41
2023-01-13T20:11:11.002Z,72.55
2023-01-13T20:13:37.495Z,73.25
2023-01-13T20:16:05.092Z,73.09
2023-01-13T20:18:32.310Z,73.29
2023-01-13T20:21:04.138Z,73.47
2023-01-13T20:23:30.613Z,73.43
2023-01-13T20:25:57.445Z,73.80
2023-01-13T20:28:24.108Z,74.41
2023-01-13T20:30:50.619Z,74.24
2023-01-13T20:33:17.293Z,75.19
2023-01-13T20:35:43.796Z,74.87
2023-01-13T20:38:12.049Z,74.88
2023-01-13T20:40:38.595Z,74.38
2023-01-13T20:43:05.195Z,74.99
2023-01-13T20:45:31.773Z,74.07
2023-01-13T20:47:58.351Z,74.34
2023-01-13T20:50:24.843Z,74.33
2023-01-13T20:52:51.384Z,74.45
2023-01-13T20:55:19.342Z,73.91
2023-01-13T20:57:45.930Z,74.13
2023-01-13T21:00:13.112Z,74.37
2023-01-13T21:02:40.203Z,74.23
2023-01-13T21:05:07.115Z,74.17
2023-01-13T21:07:33.726Z,74.47
2023-01-13T21:10:00.393Z,74.33
2023-01-13T21:12:28.381Z,74.65
2023-01-13T21:14:54.883Z,74.63
2023-01-13T21:17:21.530Z,74.87
2023-01-13T21:19:48.025Z,74.83
2023-01-13T21:22:14.619Z,74.88
2023-01-13T21:24:41.156Z,73.74
2023-01-13T21:27:08.108Z,73.66
2023-01-13T21:29:36.003Z,73.93
2023-01-13T21:32:02.607Z,72.64
2023-01-13T21:34:29.296Z,73.36
2023-01-13T21:36:55.957Z,73.56
2023-01-13T21:39:22.486Z,74.10
2023-01-13T21:41:49.095Z,74.04
2023-01-13T21:44:17.109Z,74.45
2023-01-13T21:46:45.049Z,73.81
2023-01-13T21:49:11.537Z,73.67
2023-01-13T21:51:38.124Z,73.45
2023-01-13T21:54:04.697Z,72.99
2023-01-13T21:56:31.321Z,73.20
2023-01-13T21:58:57.851Z,72.86
2023-01-13T22:01:25.481Z,73.42
2023-01-13T22:03:53.480Z,73.33
2023-01-13T22:06:20.160Z,73.34
2023-01-13T22:08:46.726Z,73.41
2023-01-13T22:11:13.337Z,74.18
2023-01-13T22:13:40.114Z,74.18
2023-01-13T22:16:07.248Z,73.85
2023-01-13T22:18:33.824Z,74.24
2023-01-13T22:21:01.772Z,74.07
2023-01-13T22:23:28.490Z,74.18
2023-01-13T22:26:00.616Z,73.64
2023-01-13T22:28:27.189Z,73.54
2023-01-13T22:30:53.790Z,73.13
2023-01-13T22:33:20.345Z,73.76
2023-01-13T22:35:54.116Z,73.50
2023-01-13T22:38:22.068Z,73.84
2023-01-13T22:40:55.609Z,73.86
2023-01-13T22:43:22.230Z,73.23
2023-01-13T22:45:56.239Z,72.47
2023-01-13T22:48:22.893Z,72.52
2023-01-13T22:50:49.408Z,72.09
2023-01-13T22:53:16.056Z,72.12
2023-01-13T22:55:44.460Z,71.81
2023-01-13T22:58:11.085Z,72.24
2023-01-13T23:00:37.620Z,72.20
2023-01-13T23:03:05.306Z,72.41
2023-01-13T23:05:31.793Z,72.48
2023-01-13T23:07:58.539Z,72.31
2023-01-13T23:10:25.042Z,72.67
2023-01-13T23:12:52.941Z,72.61
2023-01-13T23:15:19.598Z,72.68
2023-01-13T23:17:48.526Z,72.17
2023-01-13T23:20:15.877Z,71.82
2023-01-13T23:22:42.431Z,71.91
2023-01-13T23:25:10.136Z,71.82
2023-01-13T23:27:37.276Z,72.01
2023-01-13T23:30:08.066Z,72.00
2023-01-13T23:32:35.158Z,71.80
2023-01-13T23:35:01.864Z,71.95
2023-01-13T23:37:28.620Z,72.04
2023-01-13T23:39:55.133Z,71.87
2023-01-13T23:42:21.721Z,71.58
2023-01-13T23:44:48.266Z,71.92
2023-01-13T23:47:16.233Z,71.75
2023-01-13T23:49:42.761Z,71.34
2023-01-13T23:52:09.464Z,71.98
2023-01-13T23:54:36.446Z,71.89
2023-01-13T23:57:03.046Z,72.03
2023-01-13T23:59:29.593Z,71.92
